createdAt,value
2019-03-11T00:03:55.192Z,68.80
2019-03-11T00:08:00.008Z,67.80
2019-03-11T00:12:05.009Z,67.30
2019-03-11T00:16:09.898Z,65.70
2019-03-11T00:20:14.741Z,65.70
2019-03-11T00:24:19.698Z,64.50
2019-03-11T00:28:24.659Z,63.90
2019-03-11T00:32:29.668Z,63.30
2019-03-11T00:36:34.659Z,62.80
2019-03-11T00:40:39.532Z,62.10
2019-03-11T00:44:44.273Z,61.20
2019-03-11T00:48:49.020Z,60.10
2019-03-11T00:52:54.354Z,59.90
2019-03-11T00:56:59.148Z,59.00
2019-03-11T01:01:04.341Z,57.50
2019-03-11T01:05:10.112Z,56.60
2019-03-11T01:09:15.296Z,55.80
2019-03-11T01:13:20.299Z,55.90
2019-03-11T01:17:26.085Z,56.20
2019-03-11T01:21:31.307Z,56.70
2019-03-11T01:25:36.124Z,56.80
2019-03-11T01:29:40.916Z,56.70
2019-03-11T01:33:45.672Z,56.40
2019-03-11T01:37:50.481Z,56.30
2019-03-11T01:41:55.427Z,56.30
2019-03-11T01:46:00.235Z,56.40
2019-03-11T01:50:05.743Z,56.80
2019-03-11T01:54:10.856Z,57.50
2019-03-11T01:58:15.665Z,58.00
2019-03-11T02:02:20.547Z,58.40
2019-03-11T02:06:25.623Z,58.90
2019-03-11T02:10:30.516Z,59.10
2019-03-11T02:14:35.353Z,59.10
2019-03-11T02:18:40.160Z,59.30
2019-03-11T02:22:45.132Z,59.10
2019-03-11T02:26:49.940Z,58.90
2019-03-11T02:30:54.987Z,58.60
2019-03-11T02:34:59.799Z,58.90
2019-03-11T02:39:06.224Z,58.80
2019-03-11T02:43:11.781Z,59.20
2019-03-11T02:47:16.658Z,59.30
2019-03-11T02:51:21.622Z,59.30
2019-03-11T02:55:26.513Z,59.70
2019-03-11T02:59:32.555Z,59.20
2019-03-11T03:03:40.244Z,59.30
2019-03-11T03:07:45.122Z,59.50
2019-03-11T03:11:50.214Z,59.90
2019-03-11T03:15:55.027Z,60.00
2019-03-11T03:19:59.845Z,60.00
2019-03-11T03:24:05.194Z,60.10
2019-03-11T03:28:10.126Z,60.10
2019-03-11T03:32:15.650Z,60.10
2019-03-11T03:36:20.536Z,60.10
2019-03-11T03:40:25.350Z,59.40
2019-03-11T03:44:30.520Z,59.50
2019-03-11T03:48:35.487Z,58.60
2019-03-11T03:52:40.754Z,58.10
2019-03-11T03:56:45.564Z,57.30
2019-03-11T04:00:50.571Z,57.30
2019-03-11T04:04:59.723Z,56.90
2019-03-11T04:09:05.392Z,56.80
2019-03-11T04:13:10.806Z,57.30
2019-03-11T04:17:16.065Z,57.20
2019-03-11T04:21:21.625Z,58.00
2019-03-11T04:25:28.657Z,58.40
2019-03-11T04:29:33.388Z,59.00
2019-03-11T04:33:38.655Z,59.20
2019-03-11T04:37:43.560Z,60.60
2019-03-11T04:41:48.301Z,62.10
2019-03-11T04:45:53.182Z,62.90
2019-03-11T04:50:00.158Z,63.30
2019-03-11T04:54:04.776Z,63.50
2019-03-11T04:58:09.565Z,63.50
2019-03-11T05:02:14.416Z,63.40
2019-03-11T05:06:19.148Z,63.00
2019-03-11T05:10:24.006Z,62.00
2019-03-11T05:14:28.937Z,61.50
2019-03-11T05:18:33.745Z,60.60
2019-03-11T05:22:38.576Z,60.30
2019-03-11T05:26:43.388Z,59.50
2019-03-11T05:30:48.378Z,59.20
2019-03-11T05:34:53.168Z,59.30
2019-03-11T05:38:57.907Z,58.10
2019-03-11T05:43:02.726Z,57.90
2019-03-11T05:47:07.607Z,57.20
2019-03-11T05:51:12.405Z,56.60
2019-03-11T05:55:17.272Z,56.40
2019-03-11T05:59:22.087Z,56.20
2019-03-11T06:03:26.952Z,56.30
2019-03-11T06:07:32.251Z,56.00
2019-03-11T06:11:37.330Z,55.80
2019-03-11T06:15:42.244Z,55.90
2019-03-11T06:19:48.695Z,55.60
2019-03-11T06:23:53.838Z,55.50
2019-03-11T06:27:58.727Z,55.60
2019-03-11T06:32:03.652Z,55.90
2019-03-11T06:36:08.542Z,55.80
2019-03-11T06:40:13.904Z,55.90
2019-03-11T06:44:18.815Z,56.30
2019-03-11T06:48:23.692Z,56.90
2019-03-11T06:52:28.798Z,57.20
2019-03-11T06:56:33.539Z,57.50
2019-03-11T07:00:38.428Z,57.70
2019-03-11T07:04:43.235Z,58.20
2019-03-11T07:08:48.127Z,59.10
2019-03-11T07:12:53.020Z,61.90
2019-03-11T07:16:57.748Z,69.80
2019-03-11T07:21:02.964Z,76.70
2019-03-11T07:25:08.544Z,80.60
2019-03-11T07:29:13.276Z,83.40
2019-03-11T07:33:18.377Z,85.40
2019-03-11T07:37:23.142Z,86.40
2019-03-11T07:41:28.086Z,91.20
2019-03-11T07:45:32.879Z,91.70
2019-03-11T07:49:37.605Z,92.30
2019-03-11T07:53:42.364Z,92.70
2019-03-11T07:57:48.242Z,92.90
2019-03-11T08:01:53.137Z,93.00
2019-03-11T08:05:57.877Z,93.10
2019-03-11T08:10:02.739Z,92.50
2019-03-11T08:14:07.492Z,92.80
2019-03-11T08:18:12.296Z,93.20
2019-03-11T08:22:17.200Z,93.30
2019-03-11T08:26:22.010Z,93.10
2019-03-11T08:30:26.735Z,93.60
2019-03-11T08:34:31.552Z,93.50
2019-03-11T08:38:36.317Z,93.40
2019-03-11T08:42:41.262Z,93.90
2019-03-11T08:46:46.079Z,94.00
2019-03-11T08:50:50.909Z,94.10
2019-03-11T08:54:55.852Z,93.70
2019-03-11T08:59:00.740Z,92.90
2019-03-11T09:03:05.636Z,92.60
2019-03-11T09:07:10.373Z,92.10
2019-03-11T09:11:15.163Z,91.70
2019-03-11T09:15:20.242Z,91.70
2019-03-11T09:19:24.993Z,91.10
2019-03-11T09:23:30.085Z,90.70
2019-03-11T09:27:35.634Z,90.20
2019-03-11T09:31:40.740Z,89.40
2019-03-11T09:35:45.624Z,89.90
2019-03-11T09:39:50.511Z,89.00
2019-03-11T09:43:55.275Z,88.20
2019-03-11T09:48:00.068Z,86.90
2019-03-11T09:52:04.933Z,85.10
2019-03-11T09:56:09.930Z,85.40
2019-03-11T10:00:17.582Z,84.30
2019-03-11T10:04:22.700Z,84.80
2019-03-11T10:08:27.492Z,87.50
2019-03-11T10:12:32.384Z,90.30
2019-03-11T10:16:37.133Z,90.30
2019-03-11T10:20:43.141Z,90.80
2019-03-11T10:24:48.002Z,91.00
2019-03-11T10:28:53.203Z,91.20
2019-03-11T10:32:58.087Z,91.20
2019-03-11T10:37:02.996Z,90.60
2019-03-11T10:41:07.920Z,90.70
2019-03-11T10:45:13.290Z,90.50
2019-03-11T10:49:18.176Z,90.30
2019-03-11T10:53:22.944Z,89.60
2019-03-11T10:57:27.816Z,88.80
2019-03-11T11:01:32.665Z,89.10
2019-03-11T11:05:37.552Z,89.20
2019-03-11T11:09:42.364Z,87.40
2019-03-11T11:13:47.272Z,87.50
2019-03-11T11:17:53.430Z,87.60
2019-03-11T11:21:58.348Z,87.20
2019-03-11T11:26:03.152Z,85.00
2019-03-11T11:30:10.385Z,84.70
2019-03-11T11:34:15.204Z,85.60
2019-03-11T11:38:20.007Z,83.20
2019-03-11T11:42:25.076Z,82.30
2019-03-11T11:46:29.972Z,80.10
2019-03-11T11:50:34.780Z,79.90
2019-03-11T11:54:39.683Z,77.90
2019-03-11T11:58:44.565Z,77.20
2019-03-11T12:02:49.880Z,75.40
2019-03-11T12:06:54.716Z,76.40
2019-03-11T12:10:59.960Z,75.30
2019-03-11T12:15:05.557Z,73.60
2019-03-11T12:19:10.440Z,73.90
2019-03-11T12:23:15.320Z,72.30
2019-03-11T12:27:20.124Z,72.00
2019-03-11T12:31:25.021Z,71.50
2019-03-11T12:35:30.002Z,69.80
2019-03-11T12:39:34.825Z,71.30
2019-03-11T12:43:39.545Z,71.30
2019-03-11T12:47:44.480Z,70.30
2019-03-11T12:51:50.297Z,67.60
2019-03-11T12:55:55.269Z,68.90
2019-03-11T13:00:00.360Z,65.70
2019-03-11T13:04:05.239Z,64.80
2019-03-11T13:08:10.133Z,62.20
2019-03-11T13:12:14.948Z,62.60
2019-03-11T13:16:19.692Z,61.00
2019-03-11T13:20:30.979Z,60.60
2019-03-11T13:24:35.883Z,61.30
2019-03-11T13:28:40.618Z,62.90
2019-03-11T13:32:45.441Z,62.20
2019-03-11T13:36:50.180Z,62.10
2019-03-11T13:40:55.078Z,62.70
2019-03-11T13:44:59.809Z,61.20
2019-03-11T13:49:05.161Z,60.70
2019-03-11T13:53:10.044Z,60.40
2019-03-11T13:57:14.927Z,61.00
2019-03-11T14:01:21.240Z,60.00
2019-03-11T14:05:26.556Z,60.50
2019-03-11T14:09:31.363Z,62.10
2019-03-11T14:13:36.172Z,63.20
2019-03-11T14:17:41.016Z,63.90
2019-03-11T14:21:45.948Z,64.80
2019-03-11T14:25:51.310Z,64.80
2019-03-11T14:29:56.109Z,70.80
2019-03-11T14:34:00.852Z,69.70
2019-03-11T14:38:05.736Z,70.60
2019-03-11T14:42:11.716Z,70.10
2019-03-11T14:46:16.584Z,69.20
2019-03-11T14:50:21.471Z,66.80
2019-03-11T14:54:26.288Z,64.70
2019-03-11T14:58:31.020Z,64.20
2019-03-11T15:02:35.934Z,64.60
2019-03-11T15:06:40.749Z,65.00
2019-03-11T15:10:45.532Z,63.20
2019-03-11T15:14:50.628Z,64.40
2019-03-11T15:18:56.504Z,62.40
2019-03-11T15:23:07.573Z,61.50
2019-03-11T15:27:08.070Z,60.80
2019-03-11T15:31:12.961Z,61.20
2019-03-11T15:35:17.847Z,62.20
2019-03-11T15:39:22.648Z,66.00
2019-03-11T15:43:27.461Z,68.40
2019-03-11T15:47:32.332Z,69.00
2019-03-11T15:51:37.205Z,72.70
2019-03-11T15:55:44.665Z,80.60
2019-03-11T15:59:48.915Z,89.40
2019-03-11T16:03:53.765Z,90.50
2019-03-11T16:07:58.663Z,90.20
2019-03-11T16:12:04.397Z,90.40
2019-03-11T16:16:09.885Z,89.90
2019-03-11T16:20:16.357Z,88.70
2019-03-11T16:24:21.171Z,87.90
2019-03-11T16:28:27.982Z,87.60
2019-03-11T16:32:36.863Z,88.20
2019-03-11T16:36:39.208Z,89.30
2019-03-11T16:40:44.301Z,91.20
2019-03-11T16:44:49.189Z,91.40
2019-03-11T16:48:54.077Z,91.40
2019-03-11T16:52:58.896Z,91.20
2019-03-11T16:57:03.841Z,90.60
2019-03-11T17:01:10.357Z,91.00
2019-03-11T17:05:15.276Z,91.10
2019-03-11T17:09:20.156Z,90.60
2019-03-11T17:13:25.042Z,89.90
2019-03-11T17:17:29.848Z,89.40
2019-03-11T17:21:34.668Z,89.20
2019-03-11T17:25:39.473Z,88.80
2019-03-11T17:29:44.539Z,88.70
2019-03-11T17:33:49.448Z,89.00
2019-03-11T17:37:54.323Z,89.60
2019-03-11T17:41:59.146Z,89.20
2019-03-11T17:46:04.228Z,88.50
2019-03-11T17:50:10.712Z,88.60
2019-03-11T17:54:15.588Z,88.80
2019-03-11T17:58:20.452Z,89.20
2019-03-11T18:02:25.467Z,89.00
2019-03-11T18:06:30.471Z,89.40
2019-03-11T18:10:35.357Z,89.30
2019-03-11T18:14:40.490Z,88.60
2019-03-11T18:18:45.834Z,88.00
2019-03-11T18:22:51.432Z,88.90
2019-03-11T18:26:56.309Z,89.00
2019-03-11T18:31:01.443Z,88.60
2019-03-11T18:35:07.413Z,88.20
2019-03-11T18:39:12.376Z,87.70
2019-03-11T18:43:20.904Z,88.70
2019-03-11T18:47:24.005Z,88.10
2019-03-11T18:51:28.986Z,87.90
2019-03-11T18:55:34.205Z,87.40
2019-03-11T18:59:39.496Z,87.30
2019-03-11T19:03:44.769Z,87.30
2019-03-11T19:07:49.719Z,87.10
2019-03-11T19:11:54.777Z,86.50
2019-03-11T19:16:00.077Z,86.40
2019-03-11T19:20:06.893Z,86.20
2019-03-11T19:24:12.156Z,85.10
2019-03-11T19:28:17.001Z,85.20
2019-03-11T19:32:22.095Z,84.20
2019-03-11T19:36:26.958Z,83.90
2019-03-11T19:40:31.979Z,84.60
2019-03-11T19:44:37.320Z,85.00
2019-03-11T19:48:43.568Z,85.00
2019-03-11T19:52:58.326Z,84.50
2019-03-11T19:56:55.446Z,84.30
2019-03-11T20:01:00.650Z,84.30
2019-03-11T20:05:07.040Z,83.50
2019-03-11T20:09:14.274Z,83.70
2019-03-11T20:13:19.376Z,83.70
2019-03-11T20:17:24.501Z,83.20
2019-03-11T20:21:29.991Z,84.00
2019-03-11T20:25:35.200Z,83.20
2019-03-11T20:29:40.210Z,83.00
2019-03-11T20:33:45.282Z,82.50
2019-03-11T20:37:50.229Z,82.90
2019-03-11T20:41:55.438Z,83.50
2019-03-11T20:46:00.382Z,83.20
2019-03-11T20:50:05.867Z,82.50
2019-03-11T20:54:11.494Z,81.90
2019-03-11T20:58:17.589Z,81.50
2019-03-11T21:02:22.581Z,81.50
2019-03-11T21:06:27.620Z,80.40
2019-03-11T21:10:32.529Z,80.30
2019-03-11T21:14:37.714Z,80.20
2019-03-11T21:18:42.870Z,79.60
2019-03-11T21:22:48.093Z,79.30
2019-03-11T21:26:53.123Z,78.80
2019-03-11T21:30:59.251Z,78.30
2019-03-11T21:35:04.443Z,77.50
2019-03-11T21:39:10.460Z,77.40
2019-03-11T21:43:16.835Z,77.60
2019-03-11T21:47:21.724Z,77.40
2019-03-11T21:51:26.889Z,76.30
2019-03-11T21:55:33.823Z,76.70
2019-03-11T21:59:38.781Z,76.70
2019-03-11T22:03:44.531Z,76.70
2019-03-11T22:07:49.412Z,76.50
2019-03-11T22:11:54.363Z,76.40
2019-03-11T22:15:59.167Z,76.00
2019-03-11T22:20:04.638Z,76.90
2019-03-11T22:24:09.479Z,75.20
2019-03-11T22:28:14.282Z,74.20
2019-03-11T22:32:19.071Z,74.10
2019-03-11T22:36:23.805Z,73.80
2019-03-11T22:40:28.625Z,73.20
2019-03-11T22:44:33.629Z,74.30
2019-03-11T22:48:38.370Z,74.50
2019-03-11T22:52:43.507Z,74.90
2019-03-11T22:56:48.397Z,74.40
2019-03-11T23:01:01.774Z,74.50
2019-03-11T23:05:08.441Z,74.40
2019-03-11T23:09:13.337Z,74.30
2019-03-11T23:13:18.497Z,74.40
2019-03-11T23:17:23.919Z,74.00
2019-03-11T23:21:29.018Z,74.40
2019-03-11T23:25:33.907Z,74.60
2019-03-11T23:29:38.711Z,74.60
2019-03-11T23:33:43.745Z,75.20
2019-03-11T23:37:48.620Z,74.80
2019-03-11T23:41:53.656Z,75.10
2019-03-11T23:45:58.542Z,75.40
2019-03-11T23:50:03.468Z,74.90
2019-03-11T23:54:08.877Z,74.90
2019-03-11T23:58:13.620Z,75.40
